Ressurser
NettlenkerNedenfor følger en lenkesamling med ulike ressurser som er nyttige både for nåværende og kommende piloter.
Antall som skal vises: 
Nr. Nettlenke Treff
1   Link   Airplane Flying Handbook
Bok i PDF versjon som gir en innføring i flyging. Utgitt av FAA.
3026
2   Link   VOR, NDB, HSI og RMI simulator
Side med utallige flash-baserte simulatorer.
3689
3   Link   Pilot's Handbook of Aeronautical Knowledge
FAA lærebok om fly-relaterte temaer.
2451
4   Link   AOPA Air Safety Foundation
Gratis flash-baserte pilot kurs fra AOPA.
2389
5   Link   Pilot Friend
Side med mange nyttige ressurser: vær, flytyper, motortyper, flyplanlegging, flymedisin m.m.
2707
6   Link   Bernoullis prinsipp
Side med animert og fyldig informasjon om Bernoullis prinsipp
2728
7   Link   Seaplane, Skiplane, and Float/Ski Equipped Helicopter Operations Handbook
FAA bok som omhandler ski og sjøflyging.
2373
 
METAR
2018/06/24 03:20 ENCN 240320Z AUTO VRB01KT 9999 NCD 12/07 Q1015
TAF
2018/06/24 03:38 TAF ENCN 240200Z 2403/2412 VRB05KT CAVOK BECMG 2410/2412 21010KT
LN-KFK
Operativ VFR-natt
VFR dag
03:05 - 23:54
Brannvakt
Inaktiv
Banner
Banner
Banner
Banner
Banner